sensor_id;sensor_type;location;lat;lon;timestamp;pressure;altitude;pressure_sealevel;temperature;humidity
56052;BME280;41919;42.648;23.384;2023-05-12T00:01:25;94818.72;;;8.24;100.00
56052;BME280;41919;42.648;23.384;2023-05-12T00:03:51;94837.09;;;8.38;100.00
56052;BME280;41919;42.648;23.384;2023-05-12T00:06:18;94829.84;;;8.33;100.00
56052;BME280;41919;42.648;23.384;2023-05-12T00:08:44;94736.16;;;7.67;100.00
56052;BME280;41919;42.648;23.384;2023-05-12T00:11:09;94789.34;;;7.94;100.00
56052;BME280;41919;42.648;23.384;2023-05-12T00:13:35;94835.78;;;8.27;100.00
56052;BME280;41919;42.648;23.384;2023-05-12T00:16:01;94821.31;;;8.24;100.00
56052;BME280;41919;42.648;23.384;2023-05-12T00:18:26;94831.72;;;8.24;100.00
56052;BME280;41919;42.648;23.384;2023-05-12T00:20:52;94815.25;;;8.17;100.00
56052;BME280;41919;42.648;23.384;2023-05-12T00:23:19;94780.63;;;7.87;100.00
56052;BME280;41919;42.648;23.384;2023-05-12T00:25:44;94780.53;;;7.80;100.00
56052;BME280;41919;42.648;23.384;2023-05-12T00:28:10;94811.03;;;8.01;100.00
56052;BME280;41919;42.648;23.384;2023-05-12T00:30:35;94825.50;;;8.04;100.00
56052;BME280;41919;42.648;23.384;2023-05-12T00:33:01;94838.75;;;8.09;100.00
56052;BME280;41919;42.648;23.384;2023-05-12T00:35:27;94767.28;;;7.60;100.00
56052;BME280;41919;42.648;23.384;2023-05-12T00:37:52;94841.56;;;8.08;100.00
56052;BME280;41919;42.648;23.384;2023-05-12T00:40:18;94828.56;;;7.93;100.00
56052;BME280;41919;42.648;23.384;2023-05-12T00:42:43;94843.44;;;7.99;100.00
56052;BME280;41919;42.648;23.384;2023-05-12T00:45:09;94845.34;;;7.90;100.00
56052;BME280;41919;42.648;23.384;2023-05-12T00:47:35;94777.16;;;7.50;100.00
56052;BME280;41919;42.648;23.384;2023-05-12T00:50:02;94822.72;;;7.76;100.00
56052;BME280;41919;42.648;23.384;2023-05-12T00:52:28;94838.50;;;7.74;100.00
56052;BME280;41919;42.648;23.384;2023-05-12T00:54:53;94828.47;;;7.71;100.00
56052;BME280;41919;42.648;23.384;2023-05-12T00:57:21;94846.47;;;7.73;100.00
56052;BME280;41919;42.648;23.384;2023-05-12T00:59:46;94853.03;;;7.69;100.00
56052;BME280;41919;42.648;23.384;2023-05-12T01:02:12;94854.91;;;7.60;100.00
56052;BME280;41919;42.648;23.384;2023-05-12T01:04:38;94850.78;;;7.51;100.00
56052;BME280;41919;42.648;23.384;2023-05-12T01:07:09;94791.00;;;7.13;100.00
56052;BME280;41919;42.648;23.384;2023-05-12T01:09:37;94766.78;;;6.97;100.00
56052;BME280;41919;42.648;23.384;2023-05-12T01:12:02;94855.50;;;7.47;100.00
56052;BME280;41919;42.648;23.384;2023-05-12T01:14:28;94839.25;;;7.30;100.00
56052;BME280;41919;42.648;23.384;2023-05-12T01:16:57;94837.56;;;7.37;100.00
56052;BME280;41919;42.648;23.384;2023-05-12T01:19:39;94854.25;;;7.43;100.00
56052;BME280;41919;42.648;23.384;2023-05-12T01:22:07;94802.28;;;7.05;100.00
56052;BME280;41919;42.648;23.384;2023-05-12T01:24:37;94816.75;;;6.99;100.00
56052;BME280;41919;42.648;23.384;2023-05-12T01:27:03;94805.41;;;7.00;100.00
56052;BME280;41919;42.648;23.384;2023-05-12T01:29:30;94864.91;;;7.33;100.00
56052;BME280;41919;42.648;23.384;2023-05-12T01:31:57;94860.88;;;7.31;100.00
56052;BME280;41919;42.648;23.384;2023-05-12T01:34:23;94801.31;;;6.83;100.00
56052;BME280;41919;42.648;23.384;2023-05-12T01:36:48;94789.38;;;6.74;100.00
56052;BME280;41919;42.648;23.384;2023-05-12T01:39:14;94798.31;;;6.71;100.00
56052;BME280;41919;42.648;23.384;2023-05-12T01:41:39;94843.75;;;6.98;100.00
56052;BME280;41919;42.648;23.384;2023-05-12T01:44:05;94857.53;;;6.99;100.00
56052;BME280;41919;42.648;23.384;2023-05-12T01:46:30;94794.66;;;6.57;100.00
56052;BME280;41919;42.648;23.384;2023-05-12T01:48:55;94851.19;;;6.78;100.00
56052;BME280;41919;42.648;23.384;2023-05-12T01:51:21;94851.66;;;6.82;100.00
56052;BME280;41919;42.648;23.384;2023-05-12T01:53:46;94843.91;;;6.74;100.00
56052;BME280;41919;42.648;23.384;2023-05-12T01:56:12;94854.38;;;6.65;100.00
56052;BME280;41919;42.648;23.384;2023-05-12T01:58:37;94836.84;;;6.59;100.00
56052;BME280;41919;42.648;23.384;2023-05-12T02:01:03;94794.72;;;6.26;100.00
56052;BME280;41919;42.648;23.384;2023-05-12T02:03:28;94856.31;;;6.63;100.00
56052;BME280;41919;42.648;23.384;2023-05-12T02:05:53;94848.88;;;6.60;100.00
56052;BME280;41919;42.648;23.384;2023-05-12T02:08:19;94781.91;;;6.24;100.00
56052;BME280;41919;42.648;23.384;2023-05-12T02:10:44;94778.19;;;6.19;100.00
56052;BME280;41919;42.648;23.384;2023-05-12T02:13:10;94855.66;;;6.61;100.00
56052;BME280;41919;42.648;23.384;2023-05-12T02:15:36;94855.97;;;6.66;100.00
56052;BME280;41919;42.648;23.384;2023-05-12T02:18:01;94819.44;;;6.45;100.00
56052;BME280;41919;42.648;23.384;2023-05-12T02:20:27;94864.56;;;6.67;100.00
56052;BME280;41919;42.648;23.384;2023-05-12T02:22:53;94722.75;;;5.80;100.00
56052;BME280;41919;42.648;23.384;2023-05-12T02:25:19;94777.19;;;6.28;100.00
56052;BME280;41919;42.648;23.384;2023-05-12T02:27:45;94820.38;;;6.52;100.00
56052;BME280;41919;42.648;23.384;2023-05-12T02:30:10;94835.81;;;6.68;100.00
56052;BME280;41919;42.648;23.384;2023-05-12T02:32:36;94851.19;;;6.78;100.00
56052;BME280;41919;42.648;23.384;2023-05-12T02:35:02;94779.84;;;6.43;100.00
56052;BME280;41919;42.648;23.384;2023-05-12T02:37:27;94834.09;;;6.84;100.00
56052;BME280;41919;42.648;23.384;2023-05-12T02:39:53;94857.31;;;7.09;100.00
56052;BME280;41919;42.648;23.384;2023-05-12T02:42:18;94820.88;;;6.94;100.00
56052;BME280;41919;42.648;23.384;2023-05-12T02:44:44;94772.47;;;6.55;100.00
56052;BME280;41919;42.648;23.384;2023-05-12T02:47:09;94845.50;;;7.21;100.00
56052;BME280;41919;42.648;23.384;2023-05-12T02:49:34;94859.50;;;7.20;100.00
56052;BME280;41919;42.648;23.384;2023-05-12T02:52:00;94771.75;;;6.38;100.00
56052;BME280;41919;42.648;23.384;2023-05-12T02:54:26;94859.13;;;6.77;100.00
56052;BME280;41919;42.648;23.384;2023-05-12T02:56:51;94852.41;;;6.67;100.00
56052;BME280;41919;42.648;23.384;2023-05-12T02:59:17;94797.25;;;6.34;100.00
56052;BME280;41919;42.648;23.384;2023-05-12T03:01:42;94850.78;;;6.66;100.00
56052;BME280;41919;42.648;23.384;2023-05-12T03:04:08;94743.47;;;5.97;100.00
56052;BME280;41919;42.648;23.384;2023-05-12T03:06:33;94849.84;;;6.59;100.00
56052;BME280;41919;42.648;23.384;2023-05-12T03:08:59;94780.78;;;6.19;100.00
56052;BME280;41919;42.648;23.384;2023-05-12T03:11:24;94848.50;;;6.63;100.00
56052;BME280;41919;42.648;23.384;2023-05-12T03:13:50;94843.78;;;6.67;100.00
56052;BME280;41919;42.648;23.384;2023-05-12T03:16:15;94859.50;;;6.74;100.00
56052;BME280;41919;42.648;23.384;2023-05-12T03:18:42;94854.63;;;6.71;100.00
56052;BME280;41919;42.648;23.384;2023-05-12T03:21:08;94812.59;;;6.44;100.00
56052;BME280;41919;42.648;23.384;2023-05-12T03:23:33;94822.50;;;6.48;100.00
56052;BME280;41919;42.648;23.384;2023-05-12T03:25:59;94850.38;;;6.55;100.00
56052;BME280;41919;42.648;23.384;2023-05-12T03:28:25;94863.66;;;6.60;100.00
56052;BME280;41919;42.648;23.384;2023-05-12T03:30:51;94844.38;;;6.54;100.00
56052;BME280;41919;42.648;23.384;2023-05-12T03:33:16;94850.47;;;6.61;100.00
56052;BME280;41919;42.648;23.384;2023-05-12T03:35:41;94795.41;;;6.12;100.00
56052;BME280;41919;42.648;23.384;2023-05-12T03:38:07;94801.72;;;6.17;100.00
56052;BME280;41919;42.648;23.384;2023-05-12T03:40:32;94807.91;;;6.16;100.00
56052;BME280;41919;42.648;23.384;2023-05-12T03:42:58;94794.34;;;6.06;100.00
56052;BME280;41919;42.648;23.384;2023-05-12T03:45:23;94831.22;;;6.24;100.00
56052;BME280;41919;42.648;23.384;2023-05-12T03:47:48;94840.28;;;6.28;100.00
56052;BME280;41919;42.648;23.384;2023-05-12T03:50:14;94794.97;;;6.08;100.00
56052;BME280;41919;42.648;23.384;2023-05-12T03:52:39;94808.22;;;6.21;100.00
56052;BME280;41919;42.648;23.384;2023-05-12T03:55:05;94868.53;;;6.55;100.00
56052;BME280;41919;42.648;23.384;2023-05-12T03:57:31;94799.66;;;6.13;100.00
56052;BME280;41919;42.648;23.384;2023-05-12T03:59:58;94827.81;;;6.24;100.00
56052;BME280;41919;42.648;23.384;2023-05-12T04:02:24;94864.53;;;6.44;100.00
56052;BME280;41919;42.648;23.384;2023-05-12T04:04:49;94869.44;;;6.39;100.00
56052;BME280;41919;42.648;23.384;2023-05-12T04:07:15;94867.22;;;6.27;100.00
56052;BME280;41919;42.648;23.384;2023-05-12T04:09:40;94873.31;;;6.35;100.00
56052;BME280;41919;42.648;23.384;2023-05-12T04:12:06;94876.88;;;6.42;100.00
56052;BME280;41919;42.648;23.384;2023-05-12T04:14:31;94878.78;;;6.48;100.00
56052;BME280;41919;42.648;23.384;2023-05-12T04:16:57;94876.53;;;6.45;100.00
56052;BME280;41919;42.648;23.384;2023-05-12T04:19:22;94885.53;;;6.65;100.00
56052;BME280;41919;42.648;23.384;2023-05-12T04:21:48;94873.56;;;6.56;100.00
56052;BME280;41919;42.648;23.384;2023-05-12T04:24:13;94881.94;;;6.66;100.00
56052;BME280;41919;42.648;23.384;2023-05-12T04:26:39;94821.13;;;6.30;100.00
56052;BME280;41919;42.648;23.384;2023-05-12T04:29:04;94891.16;;;6.69;100.00
56052;BME280;41919;42.648;23.384;2023-05-12T04:31:30;94815.63;;;6.24;100.00
56052;BME280;41919;42.648;23.384;2023-05-12T04:33:55;94838.94;;;6.41;100.00
56052;BME280;41919;42.648;23.384;2023-05-12T04:36:21;94839.59;;;6.35;100.00
56052;BME280;41919;42.648;23.384;2023-05-12T04:38:47;94884.69;;;6.73;100.00
56052;BME280;41919;42.648;23.384;2023-05-12T04:41:12;94895.81;;;6.82;100.00
56052;BME280;41919;42.648;23.384;2023-05-12T04:43:38;94875.72;;;6.76;100.00
56052;BME280;41919;42.648;23.384;2023-05-12T04:46:03;94883.81;;;6.81;100.00
56052;BME280;41919;42.648;23.384;2023-05-12T04:48:29;94886.41;;;6.81;100.00
56052;BME280;41919;42.648;23.384;2023-05-12T04:50:57;94892.19;;;6.91;100.00
56052;BME280;41919;42.648;23.384;2023-05-12T04:53:23;94838.00;;;6.57;100.00
56052;BME280;41919;42.648;23.384;2023-05-12T04:55:48;94894.00;;;6.82;100.00
56052;BME280;41919;42.648;23.384;2023-05-12T04:58:14;94882.53;;;6.77;100.00
56052;BME280;41919;42.648;23.384;2023-05-12T05:00:39;94879.38;;;6.90;100.00
56052;BME280;41919;42.648;23.384;2023-05-12T05:03:05;94887.09;;;6.98;100.00
56052;BME280;41919;42.648;23.384;2023-05-12T05:05:31;94887.56;;;7.01;100.00
56052;BME280;41919;42.648;23.384;2023-05-12T05:07:56;94879.72;;;7.10;100.00
56052;BME280;41919;42.648;23.384;2023-05-12T05:10:22;94898.25;;;7.30;100.00
56052;BME280;41919;42.648;23.384;2023-05-12T05:12:47;94854.38;;;7.12;100.00
56052;BME280;41919;42.648;23.384;2023-05-12T05:15:13;94827.97;;;6.77;100.00
56052;BME280;41919;42.648;23.384;2023-05-12T05:17:38;94896.81;;;7.27;100.00
56052;BME280;41919;42.648;23.384;2023-05-12T05:20:04;94892.41;;;7.28;100.00
56052;BME280;41919;42.648;23.384;2023-05-12T05:22:32;94841.63;;;7.02;100.00
56052;BME280;41919;42.648;23.384;2023-05-12T05:24:57;94835.81;;;6.92;100.00
56052;BME280;41919;42.648;23.384;2023-05-12T05:27:23;94909.03;;;7.41;100.00
56052;BME280;41919;42.648;23.384;2023-05-12T05:29:49;94903.50;;;7.44;100.00
56052;BME280;41919;42.648;23.384;2023-05-12T05:32:14;94889.97;;;7.26;100.00
56052;BME280;41919;42.648;23.384;2023-05-12T05:34:39;94838.59;;;6.90;100.00
56052;BME280;41919;42.648;23.384;2023-05-12T05:37:05;94915.47;;;7.31;100.00
56052;BME280;41919;42.648;23.384;2023-05-12T05:39:30;94913.59;;;7.39;100.00
56052;BME280;41919;42.648;23.384;2023-05-12T05:41:56;94911.34;;;7.36;100.00
56052;BME280;41919;42.648;23.384;2023-05-12T05:44:23;94912.97;;;7.37;100.00
56052;BME280;41919;42.648;23.384;2023-05-12T05:46:49;94912.63;;;7.40;100.00
56052;BME280;41919;42.648;23.384;2023-05-12T05:49:15;94903.13;;;7.47;100.00
56052;BME280;41919;42.648;23.384;2023-05-12T05:51:40;94907.06;;;7.43;100.00
56052;BME280;41919;42.648;23.384;2023-05-12T05:54:06;94906.81;;;7.53;100.00
56052;BME280;41919;42.648;23.384;2023-05-12T05:56:31;94849.81;;;7.14;100.00
56052;BME280;41919;42.648;23.384;2023-05-12T05:58:57;94893.56;;;7.48;100.00
56052;BME280;41919;42.648;23.384;2023-05-12T06:01:27;94865.81;;;7.40;100.00
56052;BME280;41919;42.648;23.384;2023-05-12T06:03:53;94915.38;;;7.62;100.00
56052;BME280;41919;42.648;23.384;2023-05-12T06:06:18;94894.53;;;7.47;100.00
56052;BME280;41919;42.648;23.384;2023-05-12T06:08:43;94915.53;;;7.60;100.00
56052;BME280;41919;42.648;23.384;2023-05-12T06:11:09;94858.56;;;7.13;100.00
56052;BME280;41919;42.648;23.384;2023-05-12T06:13:36;94899.22;;;7.52;100.00
56052;BME280;41919;42.648;23.384;2023-05-12T06:16:01;94852.22;;;7.15;100.00
56052;BME280;41919;42.648;23.384;2023-05-12T06:18:27;94920.19;;;7.65;100.00
56052;BME280;41919;42.648;23.384;2023-05-12T06:20:52;94922.47;;;7.68;100.00
56052;BME280;41919;42.648;23.384;2023-05-12T06:23:18;94925.06;;;7.68;100.00
56052;BME280;41919;42.648;23.384;2023-05-12T06:25:43;94918.94;;;7.61;100.00
56052;BME280;41919;42.648;23.384;2023-05-12T06:28:08;94934.75;;;7.74;100.00
56052;BME280;41919;42.648;23.384;2023-05-12T06:30:34;94868.94;;;7.36;100.00
56052;BME280;41919;42.648;23.384;2023-05-12T06:32:59;94919.53;;;7.71;100.00
56052;BME280;41919;42.648;23.384;2023-05-12T06:35:25;94868.84;;;7.44;100.00
56052;BME280;41919;42.648;23.384;2023-05-12T06:37:50;94923.38;;;7.75;100.00
56052;BME280;41919;42.648;23.384;2023-05-12T06:40:16;94870.06;;;7.56;100.00
56052;BME280;41919;42.648;23.384;2023-05-12T06:42:42;94933.44;;;7.93;100.00
56052;BME280;41919;42.648;23.384;2023-05-12T06:45:08;94935.63;;;8.04;100.00
56052;BME280;41919;42.648;23.384;2023-05-12T06:47:33;94890.28;;;7.69;100.00
56052;BME280;41919;42.648;23.384;2023-05-12T06:49:59;94915.06;;;7.95;100.00
56052;BME280;41919;42.648;23.384;2023-05-12T06:52:24;94940.28;;;8.09;100.00
56052;BME280;41919;42.648;23.384;2023-05-12T06:54:50;94933.81;;;8.05;100.00
56052;BME280;41919;42.648;23.384;2023-05-12T06:57:15;94833.34;;;7.36;100.00
56052;BME280;41919;42.648;23.384;2023-05-12T06:59:41;94864.59;;;7.66;100.00
56052;BME280;41919;42.648;23.384;2023-05-12T07:02:06;94933.28;;;8.10;100.00
56052;BME280;41919;42.648;23.384;2023-05-12T07:04:32;94929.03;;;7.94;100.00
56052;BME280;41919;42.648;23.384;2023-05-12T07:06:57;94929.41;;;7.91;100.00
56052;BME280;41919;42.648;23.384;2023-05-12T07:09:22;94908.03;;;7.80;100.00
56052;BME280;41919;42.648;23.384;2023-05-12T07:11:48;94950.44;;;8.04;100.00
56052;BME280;41919;42.648;23.384;2023-05-12T07:14:14;94863.06;;;7.57;100.00
56052;BME280;41919;42.648;23.384;2023-05-12T07:16:39;94939.66;;;8.07;100.00
56052;BME280;41919;42.648;23.384;2023-05-12T07:19:05;94892.06;;;7.83;100.00
56052;BME280;41919;42.648;23.384;2023-05-12T07:21:33;94873.69;;;7.85;100.00
56052;BME280;41919;42.648;23.384;2023-05-12T07:23:58;94938.25;;;8.34;100.00
56052;BME280;41919;42.648;23.384;2023-05-12T07:26:24;94953.06;;;8.49;100.00
56052;BME280;41919;42.648;23.384;2023-05-12T07:28:50;94939.66;;;8.37;100.00
56052;BME280;41919;42.648;23.384;2023-05-12T07:31:16;94952.78;;;8.43;100.00
56052;BME280;41919;42.648;23.384;2023-05-12T07:33:42;94937.69;;;8.39;100.00
56052;BME280;41919;42.648;23.384;2023-05-12T07:36:08;94946.34;;;8.54;100.00
56052;BME280;41919;42.648;23.384;2023-05-12T07:38:34;94939.13;;;8.56;100.00
56052;BME280;41919;42.648;23.384;2023-05-12T07:41:00;94944.69;;;8.68;100.00
56052;BME280;41919;42.648;23.384;2023-05-12T07:43:25;94949.63;;;8.78;100.00
56052;BME280;41919;42.648;23.384;2023-05-12T07:45:50;94872.13;;;8.35;100.00
56052;BME280;41919;42.648;23.384;2023-05-12T07:48:16;94949.25;;;8.81;100.00
56052;BME280;41919;42.648;23.384;2023-05-12T07:50:41;94924.63;;;8.83;100.00
56052;BME280;41919;42.648;23.384;2023-05-12T07:53:07;94874.63;;;8.58;100.00
56052;BME280;41919;42.648;23.384;2023-05-12T07:55:32;94931.59;;;8.98;100.00
56052;BME280;41919;42.648;23.384;2023-05-12T07:57:58;94940.81;;;9.15;100.00
56052;BME280;41919;42.648;23.384;2023-05-12T08:00:24;94951.41;;;9.14;100.00
56052;BME280;41919;42.648;23.384;2023-05-12T08:02:50;94928.72;;;9.29;100.00
56052;BME280;41919;42.648;23.384;2023-05-12T08:05:15;94923.19;;;9.39;100.00
56052;BME280;41919;42.648;23.384;2023-05-12T08:07:41;94938.59;;;9.55;100.00
56052;BME280;41919;42.648;23.384;2023-05-12T08:10:09;94892.19;;;9.29;100.00
56052;BME280;41919;42.648;23.384;2023-05-12T08:12:34;94935.97;;;9.55;100.00
56052;BME280;41919;42.648;23.384;2023-05-12T08:15:00;94879.44;;;9.41;100.00
56052;BME280;41919;42.648;23.384;2023-05-12T08:17:25;94937.50;;;9.71;100.00
56052;BME280;41919;42.648;23.384;2023-05-12T08:19:51;94932.28;;;9.71;100.00
56052;BME280;41919;42.648;23.384;2023-05-12T08:22:16;94944.06;;;9.89;100.00
56052;BME280;41919;42.648;23.384;2023-05-12T08:24:41;94869.84;;;9.41;100.00
56052;BME280;41919;42.648;23.384;2023-05-12T08:27:07;94895.91;;;9.63;100.00
56052;BME280;41919;42.648;23.384;2023-05-12T08:29:33;94948.06;;;9.85;100.00
56052;BME280;41919;42.648;23.384;2023-05-12T08:31:58;94915.06;;;9.77;100.00
56052;BME280;41919;42.648;23.384;2023-05-12T08:34:24;94947.00;;;10.07;100.00
56052;BME280;41919;42.648;23.384;2023-05-12T08:36:53;94884.47;;;9.99;100.00
56052;BME280;41919;42.648;23.384;2023-05-12T08:39:19;94945.09;;;10.51;100.00
56052;BME280;41919;42.648;23.384;2023-05-12T08:42:00;94932.59;;;10.46;96.95
56052;BME280;41919;42.648;23.384;2023-05-12T08:44:28;94937.66;;;10.54;97.60
56052;BME280;41919;42.648;23.384;2023-05-12T08:46:55;94882.78;;;10.19;96.21
56052;BME280;41919;42.648;23.384;2023-05-12T08:49:23;94946.56;;;10.67;97.15
56052;BME280;41919;42.648;23.384;2023-05-12T08:51:52;94948.16;;;10.61;98.78
56052;BME280;41919;42.648;23.384;2023-05-12T08:54:17;94943.50;;;10.56;95.19
56052;BME280;41919;42.648;23.384;2023-05-12T08:56:45;94940.94;;;10.70;95.86
56052;BME280;41919;42.648;23.384;2023-05-12T08:59:11;94941.59;;;10.85;96.11
56052;BME280;41919;42.648;23.384;2023-05-12T09:01:37;94943.41;;;10.85;93.04
56052;BME280;41919;42.648;23.384;2023-05-12T09:04:07;94918.88;;;10.79;95.83
56052;BME280;41919;42.648;23.384;2023-05-12T09:06:33;94942.19;;;10.74;94.80
56052;BME280;41919;42.648;23.384;2023-05-12T09:08:58;94876.41;;;10.29;99.87
56052;BME280;41919;42.648;23.384;2023-05-12T09:11:24;94862.50;;;10.21;99.92
56052;BME280;41919;42.648;23.384;2023-05-12T09:16:22;94917.41;;;10.63;98.19
56052;BME280;41919;42.648;23.384;2023-05-12T09:18:59;94922.44;;;10.65;96.54
56052;BME280;41919;42.648;23.384;2023-05-12T09:21:26;94865.53;;;10.25;98.78
56052;BME280;41919;42.648;23.384;2023-05-12T09:24:02;94927.19;;;10.54;98.39
56052;BME280;41919;42.648;23.384;2023-05-12T09:26:43;94860.75;;;10.29;97.41
56052;BME280;41919;42.648;23.384;2023-05-12T09:29:09;94921.44;;;10.66;96.01
56052;BME280;41919;42.648;23.384;2023-05-12T09:31:35;94923.25;;;10.72;95.61
56052;BME280;41919;42.648;23.384;2023-05-12T09:34:06;94922.09;;;10.81;95.08
56052;BME280;41919;42.648;23.384;2023-05-12T09:36:33;94911.63;;;10.74;93.38
56052;BME280;41919;42.648;23.384;2023-05-12T09:39:08;94909.00;;;10.81;93.38
56052;BME280;41919;42.648;23.384;2023-05-12T09:41:41;94912.13;;;11.05;96.96
56052;BME280;41919;42.648;23.384;2023-05-12T09:44:08;94847.66;;;10.77;91.33
56052;BME280;41919;42.648;23.384;2023-05-12T09:46:35;94910.91;;;11.07;91.11
56052;BME280;41919;42.648;23.384;2023-05-12T09:49:01;94877.88;;;10.93;93.01
56052;BME280;41919;42.648;23.384;2023-05-12T09:51:28;94920.78;;;11.25;88.98
56052;BME280;41919;42.648;23.384;2023-05-12T09:53:55;94919.59;;;11.34;87.65
56052;BME280;41919;42.648;23.384;2023-05-12T09:56:20;94873.66;;;10.98;87.68
56052;BME280;41919;42.648;23.384;2023-05-12T09:58:48;94920.84;;;11.45;89.26
56052;BME280;41919;42.648;23.384;2023-05-12T10:01:15;94887.59;;;11.32;86.23
56052;BME280;41919;42.648;23.384;2023-05-12T10:03:41;94900.09;;;11.44;88.60
56052;BME280;41919;42.648;23.384;2023-05-12T10:06:14;94903.09;;;11.41;85.60
56052;BME280;41919;42.648;23.384;2023-05-12T10:08:51;94901.72;;;11.71;90.79
56052;BME280;41919;42.648;23.384;2023-05-12T10:11:18;94840.13;;;11.62;86.01
56052;BME280;41919;42.648;23.384;2023-05-12T10:13:45;94906.50;;;12.21;82.80
56052;BME280;41919;42.648;23.384;2023-05-12T10:16:12;94883.94;;;12.27;81.59
56052;BME280;41919;42.648;23.384;2023-05-12T10:18:38;94902.47;;;12.32;81.27
56052;BME280;41919;42.648;23.384;2023-05-12T10:21:05;94908.91;;;12.36;81.08
56052;BME280;41919;42.648;23.384;2023-05-12T10:23:33;94905.03;;;12.52;78.90
56052;BME280;41919;42.648;23.384;2023-05-12T10:26:00;94906.66;;;12.46;79.43
56052;BME280;41919;42.648;23.384;2023-05-12T10:28:29;94884.63;;;12.61;79.62
56052;BME280;41919;42.648;23.384;2023-05-12T10:30:58;94866.19;;;12.81;78.09
56052;BME280;41919;42.648;23.384;2023-05-12T10:33:24;94891.53;;;12.93;77.41
56052;BME280;41919;42.648;23.384;2023-05-12T10:35:51;94861.56;;;12.76;76.43
56052;BME280;41919;42.648;23.384;2023-05-12T10:38:17;94867.59;;;12.83;79.41
56052;BME280;41919;42.648;23.384;2023-05-12T10:43:26;94884.53;;;12.87;78.59
56052;BME280;41919;42.648;23.384;2023-05-12T10:46:24;94889.41;;;12.77;77.50
56052;BME280;41919;42.648;23.384;2023-05-12T10:51:25;94873.44;;;12.85;79.08
56052;BME280;41919;42.648;23.384;2023-05-12T10:54:02;94823.41;;;12.48;76.05
56052;BME280;41919;42.648;23.384;2023-05-12T10:56:35;94812.22;;;12.60;80.15
56052;BME280;41919;42.648;23.384;2023-05-12T10:59:15;94882.50;;;12.89;78.28
56052;BME280;41919;42.648;23.384;2023-05-12T11:02:01;94836.41;;;12.68;78.39
56052;BME280;41919;42.648;23.384;2023-05-12T11:07:11;94835.00;;;12.66;76.92
56052;BME280;41919;42.648;23.384;2023-05-12T11:09:39;94814.09;;;12.52;75.69
56052;BME280;41919;42.648;23.384;2023-05-12T11:12:06;94900.25;;;12.87;75.95
56052;BME280;41919;42.648;23.384;2023-05-12T11:14:37;94841.44;;;12.63;78.10
56052;BME280;41919;42.648;23.384;2023-05-12T11:17:03;94872.78;;;12.97;76.39
56052;BME280;41919;42.648;23.384;2023-05-12T11:19:29;94874.41;;;12.91;75.64
56052;BME280;41919;42.648;23.384;2023-05-12T11:21:55;94860.31;;;12.85;76.70
56052;BME280;41919;42.648;23.384;2023-05-12T11:24:21;94886.81;;;13.09;77.59
56052;BME280;41919;42.648;23.384;2023-05-12T11:26:47;94838.06;;;12.94;75.91
56052;BME280;41919;42.648;23.384;2023-05-12T11:29:20;94901.78;;;13.02;72.83
56052;BME280;41919;42.648;23.384;2023-05-12T11:31:46;94898.03;;;12.84;76.49
56052;BME280;41919;42.648;23.384;2023-05-12T11:34:13;94830.63;;;12.46;75.80
56052;BME280;41919;42.648;23.384;2023-05-12T11:36:40;94887.53;;;12.84;73.24
56052;BME280;41919;42.648;23.384;2023-05-12T11:39:12;94900.59;;;12.98;74.82
56052;BME280;41919;42.648;23.384;2023-05-12T11:41:38;94835.47;;;12.56;71.72
56052;BME280;41919;42.648;23.384;2023-05-12T11:44:32;94903.88;;;12.93;77.02
56052;BME280;41919;42.648;23.384;2023-05-12T11:47:10;94846.69;;;12.70;72.12
56052;BME280;41919;42.648;23.384;2023-05-12T11:49:47;94897.78;;;12.99;72.37
56052;BME280;41919;42.648;23.384;2023-05-12T11:52:13;94888.91;;;12.93;72.73
56052;BME280;41919;42.648;23.384;2023-05-12T11:54:49;94820.94;;;12.53;74.59
56052;BME280;41919;42.648;23.384;2023-05-12T11:57:27;94908.31;;;12.92;74.67
56052;BME280;41919;42.648;23.384;2023-05-12T12:00:06;94881.16;;;12.73;75.97
56052;BME280;41919;42.648;23.384;2023-05-12T12:02:33;94876.97;;;12.66;73.88
56052;BME280;41919;42.648;23.384;2023-05-12T12:05:00;94835.13;;;12.39;77.41
56052;BME280;41919;42.648;23.384;2023-05-12T12:07:36;94880.78;;;12.70;76.09
56052;BME280;41919;42.648;23.384;2023-05-12T12:10:12;94877.41;;;12.56;75.59
56052;BME280;41919;42.648;23.384;2023-05-12T12:12:38;94881.81;;;12.55;76.19
56052;BME280;41919;42.648;23.384;2023-05-12T12:15:04;94889.88;;;12.54;77.53
56052;BME280;41919;42.648;23.384;2023-05-12T12:17:30;94919.31;;;12.63;76.71
56052;BME280;41919;42.648;23.384;2023-05-12T12:19:56;94852.31;;;12.22;75.11
56052;BME280;41919;42.648;23.384;2023-05-12T12:22:22;94906.66;;;12.46;77.80
56052;BME280;41919;42.648;23.384;2023-05-12T12:24:47;94899.41;;;12.48;78.21
56052;BME280;41919;42.648;23.384;2023-05-12T12:27:13;94915.75;;;12.50;75.88
56052;BME280;41919;42.648;23.384;2023-05-12T12:29:38;94900.41;;;12.47;78.23
56052;BME280;41919;42.648;23.384;2023-05-12T12:32:04;94905.81;;;12.66;76.66
56052;BME280;41919;42.648;23.384;2023-05-12T12:34:29;94846.06;;;12.23;76.29
56052;BME280;41919;42.648;23.384;2023-05-12T12:36:55;94889.47;;;12.57;76.36
56052;BME280;41919;42.648;23.384;2023-05-12T12:39:20;94906.00;;;12.64;78.24
56052;BME280;41919;42.648;23.384;2023-05-12T12:41:47;94894.28;;;12.67;75.51
56052;BME280;41919;42.648;23.384;2023-05-12T12:44:12;94893.50;;;12.60;74.60
56052;BME280;41919;42.648;23.384;2023-05-12T12:46:38;94840.41;;;12.26;75.53
56052;BME280;41919;42.648;23.384;2023-05-12T12:49:03;94906.81;;;12.65;75.40
56052;BME280;41919;42.648;23.384;2023-05-12T12:51:30;94855.34;;;12.19;72.32
56052;BME280;41919;42.648;23.384;2023-05-12T12:53:56;94901.81;;;12.50;73.16
56052;BME280;41919;42.648;23.384;2023-05-12T12:56:22;94859.34;;;12.21;73.42
56052;BME280;41919;42.648;23.384;2023-05-12T12:58:49;94899.41;;;12.42;73.47